Time;durP1;ratioP1;P1;durP2;ratioP2;P2;SDS_P1;SDS_P2;PMS_P1;PMS_P2;Temp;Humidity;BMP_temperature;BMP_pressure;BME280_temperature;BME280_humidity;BME280_pressure;Samples;Min_cycle;Max_cycle;Signal;HPM_P1;HPM_P2
2021/07/31 00:01:35;;;;;;;4.07;2.92;;;;;;;;;;5097991;28;20032;-78
2021/07/31 00:04:01;;;;;;;4.03;2.67;;;;;;;;;;5091552;28;20024;-79
2021/07/31 00:06:27;;;;;;;3.60;3.30;;;;;;;;;;5083912;28;20027;-80
2021/07/31 00:08:53;;;;;;;3.53;3.10;;;;;;;;;;5076150;28;20092;-79
2021/07/31 00:11:19;;;;;;;4.47;2.90;;;;;;;;;;5087941;28;20134;-79
2021/07/31 00:13:45;;;;;;;3.08;2.78;;;;;;;;;;5096961;28;20032;-78
2021/07/31 00:16:12;;;;;;;5.68;3.50;;;;;;;;;;5097866;28;20073;-80
2021/07/31 00:18:38;;;;;;;3.65;2.90;;;;;;;;;;5094508;28;20491;-80
2021/07/31 00:21:04;;;;;;;3.88;3.30;;;;;;;;;;5086891;28;20078;-79
2021/07/31 00:23:30;;;;;;;3.17;2.88;;;;;;;;;;5077867;28;20021;-80
2021/07/31 00:25:56;;;;;;;3.53;3.20;;;;;;;;;;5078403;28;20029;-79
2021/07/31 00:28:23;;;;;;;4.00;3.10;;;;;;;;;;5077195;28;20056;-79
2021/07/31 00:30:50;;;;;;;5.32;3.47;;;;;;;;;;5078497;28;20040;-79
2021/07/31 00:33:16;;;;;;;4.80;3.47;;;;;;;;;;5080552;28;20020;-80
2021/07/31 00:35:43;;;;;;;3.60;3.30;;;;;;;;;;5082866;28;20046;-80
2021/07/31 00:38:09;;;;;;;3.35;3.05;;;;;;;;;;5076402;28;20494;-79
2021/07/31 00:40:35;;;;;;;4.00;2.90;;;;;;;;;;5080224;28;20024;-78
2021/07/31 00:43:04;;;;;;;3.50;3.10;;;;;;;;;;5095640;28;20031;-79
2021/07/31 00:45:31;;;;;;;3.67;3.30;;;;;;;;;;5097003;28;20416;-80
2021/07/31 00:48:00;;;;;;;4.68;3.40;;;;;;;;;;5097755;28;20104;-79
2021/07/31 00:50:27;;;;;;;3.58;3.20;;;;;;;;;;5096212;28;20111;-78
2021/07/31 00:52:54;;;;;;;4.05;3.58;;;;;;;;;;5075838;28;20161;-79
2021/07/31 00:55:21;;;;;;;4.22;3.80;;;;;;;;;;5076800;28;20025;-80
2021/07/31 00:57:48;;;;;;;3.40;3.10;;;;;;;;;;5077069;28;20035;-80
2021/07/31 01:00:14;;;;;;;3.85;3.45;;;;;;;;;;5080588;28;20028;-79
2021/07/31 01:02:40;;;;;;;3.58;3.28;;;;;;;;;;5096408;28;20039;-80
2021/07/31 01:05:06;;;;;;;4.03;3.70;;;;;;;;;;5084346;28;20043;-80
2021/07/31 01:07:33;;;;;;;3.55;3.22;;;;;;;;;;5076878;28;20070;-77
2021/07/31 01:10:00;;;;;;;3.00;2.72;;;;;;;;;;5080404;28;20036;-79
2021/07/31 01:12:26;;;;;;;3.97;3.20;;;;;;;;;;5097671;28;20107;-80
2021/07/31 01:14:52;;;;;;;3.42;3.13;;;;;;;;;;5097676;28;20031;-80
2021/07/31 01:17:18;;;;;;;3.38;3.08;;;;;;;;;;5095838;28;20393;-78
2021/07/31 01:19:44;;;;;;;4.55;3.33;;;;;;;;;;5075223;28;20044;-78
2021/07/31 01:22:10;;;;;;;3.15;2.90;;;;;;;;;;5077889;28;20449;-78
2021/07/31 01:24:36;;;;;;;3.83;3.33;;;;;;;;;;5076797;28;20028;-79
2021/07/31 01:27:03;;;;;;;3.25;2.95;;;;;;;;;;5077145;28;20024;-78
2021/07/31 01:29:29;;;;;;;4.30;3.28;;;;;;;;;;5076677;28;20036;-79
2021/07/31 01:31:55;;;;;;;3.65;3.35;;;;;;;;;;5087915;28;20028;-79
2021/07/31 01:34:21;;;;;;;3.35;3.05;;;;;;;;;;5089319;28;20025;-79
2021/07/31 01:36:47;;;;;;;4.30;3.50;;;;;;;;;;5075546;28;20041;-79
2021/07/31 01:39:13;;;;;;;3.85;3.20;;;;;;;;;;5076566;28;20035;-77
2021/07/31 01:41:39;;;;;;;5.82;3.53;;;;;;;;;;5089714;28;20020;-79
2021/07/31 01:44:05;;;;;;;3.35;3.05;;;;;;;;;;5095962;28;20120;-79
2021/07/31 01:46:32;;;;;;;4.00;2.97;;;;;;;;;;5082618;28;20083;-79
2021/07/31 01:48:58;;;;;;;4.95;3.45;;;;;;;;;;5075773;28;20025;-79
2021/07/31 01:51:24;;;;;;;3.47;3.17;;;;;;;;;;5085850;28;20059;-77
2021/07/31 01:53:50;;;;;;;4.88;3.25;;;;;;;;;;5086269;28;20025;-77
2021/07/31 01:56:16;;;;;;;3.03;2.80;;;;;;;;;;5077364;28;20039;-78
2021/07/31 01:58:42;;;;;;;3.75;3.45;;;;;;;;;;5074850;28;20039;-77
2021/07/31 02:01:08;;;;;;;3.45;3.15;;;;;;;;;;5073115;28;20025;-78
2021/07/31 02:03:34;;;;;;;3.90;2.97;;;;;;;;;;5079907;28;20108;-78
2021/07/31 02:06:00;;;;;;;3.60;3.05;;;;;;;;;;5086134;28;20024;-79
2021/07/31 02:08:26;;;;;;;3.28;2.92;;;;;;;;;;5093525;28;20031;-78
2021/07/31 02:10:52;;;;;;;5.18;3.03;;;;;;;;;;5095039;28;20027;-79
2021/07/31 02:13:18;;;;;;;6.05;3.22;;;;;;;;;;5084266;28;20064;-78
2021/07/31 02:15:45;;;;;;;3.25;3.03;;;;;;;;;;5093673;28;20031;-78
2021/07/31 02:18:11;;;;;;;4.47;3.05;;;;;;;;;;5094783;28;20082;-77
2021/07/31 02:20:38;;;;;;;3.20;2.90;;;;;;;;;;5096002;28;20085;-78
2021/07/31 02:23:04;;;;;;;4.57;3.53;;;;;;;;;;5098415;28;20032;-78
2021/07/31 02:25:30;;;;;;;3.13;2.78;;;;;;;;;;5094808;28;20125;-79
2021/07/31 02:27:56;;;;;;;4.13;3.30;;;;;;;;;;5091692;28;20067;-77
2021/07/31 02:30:23;;;;;;;5.63;2.75;;;;;;;;;;5073832;28;20021;-78
2021/07/31 02:32:49;;;;;;;3.40;3.10;;;;;;;;;;5074934;28;20111;-78
2021/07/31 02:35:15;;;;;;;3.47;3.00;;;;;;;;;;5083313;28;20043;-78
2021/07/31 02:37:41;;;;;;;3.83;3.33;;;;;;;;;;5074567;28;20062;-79
2021/07/31 02:40:07;;;;;;;3.88;3.15;;;;;;;;;;5074759;28;20032;-79
2021/07/31 02:42:36;;;;;;;3.58;3.17;;;;;;;;;;5106654;28;20033;-78
2021/07/31 02:45:07;;;;;;;3.60;3.30;;;;;;;;;;5105486;28;20028;-78
2021/07/31 02:47:33;;;;;;;3.90;3.08;;;;;;;;;;5092440;28;20040;-79
2021/07/31 02:49:59;;;;;;;3.25;2.95;;;;;;;;;;5092093;28;20028;-78
2021/07/31 02:52:25;;;;;;;3.15;2.85;;;;;;;;;;5074097;28;20037;-78
2021/07/31 02:54:51;;;;;;;3.67;3.38;;;;;;;;;;5071103;28;20044;-79
2021/07/31 02:57:18;;;;;;;3.58;3.28;;;;;;;;;;5090643;28;20080;-79
2021/07/31 02:59:44;;;;;;;4.43;2.90;;;;;;;;;;5092927;28;20530;-78
2021/07/31 03:02:10;;;;;;;3.42;3.13;;;;;;;;;;5092577;28;20024;-79
2021/07/31 03:04:36;;;;;;;3.60;3.30;;;;;;;;;;5084876;28;20047;-79
2021/07/31 03:07:02;;;;;;;3.35;3.05;;;;;;;;;;5089463;28;20027;-80
2021/07/31 03:09:28;;;;;;;4.20;3.65;;;;;;;;;;5095899;28;20095;-80
2021/07/31 03:11:54;;;;;;;3.35;3.08;;;;;;;;;;5092251;28;20026;-80
2021/07/31 03:14:20;;;;;;;3.15;2.85;;;;;;;;;;5075408;28;20044;-80
2021/07/31 03:16:46;;;;;;;4.20;3.45;;;;;;;;;;5092269;28;20024;-80
2021/07/31 03:19:12;;;;;;;3.60;2.97;;;;;;;;;;5096727;28;20024;-79
2021/07/31 03:21:38;;;;;;;3.50;3.20;;;;;;;;;;5097781;28;20079;-79
2021/07/31 03:24:05;;;;;;;4.55;3.35;;;;;;;;;;5099250;28;20491;-78
2021/07/31 03:26:31;;;;;;;3.60;3.30;;;;;;;;;;5083522;28;20035;-78
2021/07/31 03:28:57;;;;;;;4.50;3.33;;;;;;;;;;5076409;28;20084;-78
2021/07/31 03:31:23;;;;;;;3.80;3.38;;;;;;;;;;5077475;28;20017;-78
2021/07/31 03:33:50;;;;;;;3.58;3.28;;;;;;;;;;5085575;28;20020;-79
2021/07/31 03:36:16;;;;;;;4.30;3.65;;;;;;;;;;5077096;28;20033;-79
2021/07/31 03:38:42;;;;;;;3.80;3.42;;;;;;;;;;5079030;28;20108;-78
2021/07/31 03:41:08;;;;;;;3.47;3.17;;;;;;;;;;5078119;28;20414;-79
2021/07/31 03:43:34;;;;;;;3.30;3.00;;;;;;;;;;5077172;28;20021;-79
2021/07/31 03:46:00;;;;;;;3.67;3.38;;;;;;;;;;5078063;28;20020;-78
2021/07/31 03:48:26;;;;;;;3.80;3.40;;;;;;;;;;5080408;28;20028;-78
2021/07/31 03:50:52;;;;;;;3.00;2.80;;;;;;;;;;5096700;28;20491;-79
2021/07/31 03:53:18;;;;;;;4.10;3.25;;;;;;;;;;5077517;28;20029;-79
2021/07/31 03:55:48;;;;;;;3.75;3.40;;;;;;;;;;5077506;28;20478;-78
2021/07/31 03:58:14;;;;;;;4.05;3.40;;;;;;;;;;5078302;28;20157;-79
2021/07/31 04:00:41;;;;;;;4.13;3.05;;;;;;;;;;5092160;28;20089;-79
2021/07/31 04:03:07;;;;;;;3.30;3.00;;;;;;;;;;5094333;28;20427;-79
2021/07/31 04:05:33;;;;;;;3.88;3.45;;;;;;;;;;5088091;28;20031;-79
2021/07/31 04:07:59;;;;;;;3.28;2.67;;;;;;;;;;5097160;28;20043;-79
2021/07/31 04:10:25;;;;;;;4.10;3.20;;;;;;;;;;5077038;28;20068;-79
2021/07/31 04:12:51;;;;;;;3.65;3.35;;;;;;;;;;5075056;28;20376;-77
2021/07/31 04:15:17;;;;;;;4.55;3.13;;;;;;;;;;5078209;28;20460;-77
2021/07/31 04:17:43;;;;;;;3.53;3.22;;;;;;;;;;5098830;28;20023;-79
2021/07/31 04:20:10;;;;;;;3.75;3.45;;;;;;;;;;5088106;28;20116;-77
2021/07/31 04:22:36;;;;;;;5.47;3.05;;;;;;;;;;5089317;28;20035;-78
2021/07/31 04:25:02;;;;;;;3.80;3.50;;;;;;;;;;5090258;28;20016;-78
2021/07/31 04:27:28;;;;;;;2.95;2.75;;;;;;;;;;5090813;28;20028;-77
2021/07/31 04:29:54;;;;;;;4.10;3.28;;;;;;;;;;5086167;28;20017;-77
2021/07/31 04:32:20;;;;;;;3.38;3.05;;;;;;;;;;5086531;28;20064;-77
2021/07/31 04:34:46;;;;;;;2.80;2.60;;;;;;;;;;5085216;28;20136;-78
2021/07/31 04:37:12;;;;;;;3.25;2.95;;;;;;;;;;5088137;28;20472;-78
2021/07/31 04:39:38;;;;;;;3.33;3.00;;;;;;;;;;5088625;28;20031;-78
2021/07/31 04:42:05;;;;;;;2.92;2.72;;;;;;;;;;5095445;28;20089;-77
2021/07/31 04:44:31;;;;;;;2.95;2.75;;;;;;;;;;5086028;28;20020;-77
2021/07/31 04:46:57;;;;;;;3.35;3.05;;;;;;;;;;5099346;28;20510;-78
2021/07/31 04:49:23;;;;;;;3.97;2.80;;;;;;;;;;5090951;28;20099;-79
2021/07/31 04:51:50;;;;;;;4.38;3.70;;;;;;;;;;5084803;28;20080;-80
2021/07/31 04:54:16;;;;;;;3.38;3.08;;;;;;;;;;5097767;28;20031;-78
2021/07/31 04:56:42;;;;;;;4.05;3.17;;;;;;;;;;5084337;28;20029;-79
2021/07/31 04:59:08;;;;;;;3.53;3.22;;;;;;;;;;5076618;28;20025;-79
2021/07/31 05:01:34;;;;;;;3.55;3.25;;;;;;;;;;5082146;28;20048;-83
2021/07/31 05:04:00;;;;;;;3.38;3.08;;;;;;;;;;5092698;28;20020;-79
2021/07/31 05:06:26;;;;;;;3.70;3.28;;;;;;;;;;5077031;28;20073;-77
2021/07/31 05:08:52;;;;;;;3.50;3.20;;;;;;;;;;5073768;28;20137;-77
2021/07/31 05:11:21;;;;;;;2.88;2.67;;;;;;;;;;5070555;28;20346;-77
2021/07/31 05:13:47;;;;;;;3.55;3.25;;;;;;;;;;5073453;28;20477;-78
2021/07/31 05:16:15;;;;;;;3.90;2.60;;;;;;;;;;5073487;28;20102;-76
2021/07/31 05:18:41;;;;;;;3.50;3.15;;;;;;;;;;5073044;28;20047;-79
2021/07/31 05:21:07;;;;;;;3.45;2.97;;;;;;;;;;5079371;28;20032;-79
2021/07/31 05:23:33;;;;;;;3.38;3.03;;;;;;;;;;5092861;28;20572;-77
2021/07/31 05:25:59;;;;;;;2.90;2.70;;;;;;;;;;5098975;28;20047;-78
2021/07/31 05:28:25;;;;;;;3.30;3.00;;;;;;;;;;5099041;28;20024;-78
2021/07/31 05:30:51;;;;;;;2.92;2.72;;;;;;;;;;5075123;28;20100;-77
2021/07/31 05:33:17;;;;;;;3.25;2.90;;;;;;;;;;5075750;28;20401;-78
2021/07/31 05:35:43;;;;;;;2.97;2.67;;;;;;;;;;5085096;28;20035;-78
2021/07/31 05:38:09;;;;;;;2.97;2.53;;;;;;;;;;5092387;28;20024;-77
2021/07/31 05:40:35;;;;;;;2.80;2.60;;;;;;;;;;5084274;28;20032;-78
2021/07/31 05:43:02;;;;;;;3.30;2.75;;;;;;;;;;5093429;28;20035;-78
2021/07/31 05:45:28;;;;;;;2.97;2.78;;;;;;;;;;5092861;28;20032;-77
2021/07/31 05:47:56;;;;;;;3.80;2.50;;;;;;;;;;5094980;28;20389;-77
2021/07/31 05:50:23;;;;;;;2.80;2.35;;;;;;;;;;5090274;28;20017;-78
2021/07/31 05:52:50;;;;;;;2.75;2.55;;;;;;;;;;5088854;28;20032;-78
2021/07/31 05:55:16;;;;;;;3.33;2.92;;;;;;;;;;5087954;28;20494;-78
2021/07/31 05:57:42;;;;;;;2.53;2.33;;;;;;;;;;5071661;28;20363;-78
2021/07/31 06:00:08;;;;;;;3.30;2.88;;;;;;;;;;5072696;28;20040;-77
2021/07/31 06:02:34;;;;;;;3.03;2.40;;;;;;;;;;5091629;28;20530;-79
2021/07/31 06:05:00;;;;;;;2.92;2.70;;;;;;;;;;5082906;28;20031;-79
2021/07/31 06:07:26;;;;;;;2.60;2.40;;;;;;;;;;5076113;28;20115;-79
2021/07/31 06:09:53;;;;;;;4.18;2.70;;;;;;;;;;5074035;28;20461;-79
2021/07/31 06:12:20;;;;;;;3.20;2.90;;;;;;;;;;5072348;28;20477;-79
2021/07/31 06:14:47;;;;;;;2.80;2.60;;;;;;;;;;5080668;28;20032;-79
2021/07/31 06:17:13;;;;;;;3.65;3.25;;;;;;;;;;5073639;28;20031;-79
2021/07/31 06:19:39;;;;;;;3.50;3.20;;;;;;;;;;5078294;28;20025;-78
2021/07/31 06:22:05;;;;;;;3.25;2.97;;;;;;;;;;5078553;28;20062;-79
2021/07/31 06:24:32;;;;;;;3.20;2.90;;;;;;;;;;5072390;28;20028;-78
2021/07/31 06:26:58;;;;;;;3.03;2.72;;;;;;;;;;5085266;28;20040;-78
2021/07/31 06:29:24;;;;;;;3.20;2.90;;;;;;;;;;5090009;28;20501;-78
2021/07/31 06:31:51;;;;;;;3.58;3.28;;;;;;;;;;5091765;28;20082;-78
2021/07/31 06:34:17;;;;;;;3.35;3.00;;;;;;;;;;5081087;28;20098;-77
2021/07/31 06:36:43;;;;;;;2.92;2.70;;;;;;;;;;5082644;28;20048;-78
2021/07/31 06:39:10;;;;;;;5.43;3.60;;;;;;;;;;5070796;28;20043;-77
2021/07/31 06:41:36;;;;;;;3.40;3.03;;;;;;;;;;5084624;28;20077;-79
2021/07/31 06:44:02;;;;;;;3.35;3.10;;;;;;;;;;5091942;28;20138;-77
2021/07/31 06:46:29;;;;;;;3.22;2.88;;;;;;;;;;5079689;28;20385;-79
2021/07/31 06:48:56;;;;;;;4.03;3.63;;;;;;;;;;5072580;28;20039;-77
2021/07/31 06:51:22;;;;;;;3.17;2.97;;;;;;;;;;5087744;28;20047;-79
2021/07/31 06:53:49;;;;;;;3.60;3.30;;;;;;;;;;5096212;28;20024;-78
2021/07/31 06:56:15;;;;;;;3.15;2.92;;;;;;;;;;5095999;28;20618;-79
2021/07/31 06:58:41;;;;;;;4.45;3.08;;;;;;;;;;5095405;28;20031;-79
2021/07/31 07:01:11;;;;;;;3.65;2.97;;;;;;;;;;5088570;28;20044;-79
2021/07/31 07:03:37;;;;;;;3.35;2.70;;;;;;;;;;5082586;28;20020;-78
2021/07/31 07:06:07;;;;;;;3.25;2.95;;;;;;;;;;5078940;28;20112;-78
2021/07/31 07:08:33;;;;;;;4.28;3.33;;;;;;;;;;5075622;28;20156;-78
2021/07/31 07:10:59;;;;;;;3.95;3.13;;;;;;;;;;5074994;28;20441;-78
2021/07/31 07:13:25;;;;;;;4.75;3.08;;;;;;;;;;5076835;28;20096;-78
2021/07/31 07:15:51;;;;;;;5.43;3.83;;;;;;;;;;5077745;28;20458;-79
2021/07/31 07:18:17;;;;;;;3.80;3.42;;;;;;;;;;5077585;28;20040;-78
2021/07/31 07:20:45;;;;;;;5.30;3.90;;;;;;;;;;5074518;28;20035;-78
2021/07/31 07:23:11;;;;;;;5.00;3.92;;;;;;;;;;5074927;28;20149;-77
2021/07/31 07:25:37;;;;;;;6.28;4.28;;;;;;;;;;5075054;28;20130;-77
2021/07/31 07:28:03;;;;;;;4.93;4.28;;;;;;;;;;5074879;28;20123;-78
2021/07/31 07:30:29;;;;;;;4.03;3.63;;;;;;;;;;5089483;28;20028;-77
2021/07/31 07:32:55;;;;;;;6.07;3.85;;;;;;;;;;5091922;28;20032;-81
2021/07/31 07:35:22;;;;;;;5.85;4.68;;;;;;;;;;5088951;28;20485;-80
2021/07/31 07:37:48;;;;;;;5.45;4.43;;;;;;;;;;5097040;28;20028;-80
2021/07/31 07:40:14;;;;;;;4.97;4.35;;;;;;;;;;5092216;28;20028;-78
2021/07/31 07:42:41;;;;;;;6.55;4.63;;;;;;;;;;5094870;28;20499;-78
2021/07/31 07:45:07;;;;;;;4.28;3.88;;;;;;;;;;5093274;28;20456;-78
2021/07/31 07:47:34;;;;;;;4.88;3.90;;;;;;;;;;5075048;28;20024;-79
2021/07/31 07:50:00;;;;;;;4.25;3.85;;;;;;;;;;5075627;28;20059;-79
2021/07/31 07:52:27;;;;;;;4.60;4.20;;;;;;;;;;5074566;28;20024;-78
2021/07/31 07:54:53;;;;;;;5.00;4.30;;;;;;;;;;5075657;28;20082;-79
2021/07/31 07:57:19;;;;;;;6.55;4.30;;;;;;;;;;5076509;28;20040;-78
2021/07/31 07:59:45;;;;;;;6.22;4.85;;;;;;;;;;5093221;28;20388;-78
2021/07/31 08:02:11;;;;;;;5.32;4.40;;;;;;;;;;5078569;28;20029;-78
2021/07/31 08:04:37;;;;;;;4.43;3.58;;;;;;;;;;5087205;28;20511;-79
2021/07/31 08:07:03;;;;;;;5.95;4.35;;;;;;;;;;5096743;28;20020;-78
2021/07/31 08:09:29;;;;;;;4.93;3.88;;;;;;;;;;5101628;28;20380;-77
2021/07/31 08:11:55;;;;;;;4.22;3.83;;;;;;;;;;5084702;28;20024;-79
2021/07/31 08:14:21;;;;;;;5.55;3.90;;;;;;;;;;5093066;28;20035;-79
2021/07/31 08:16:47;;;;;;;3.50;3.20;;;;;;;;;;5096851;28;20468;-79
2021/07/31 08:19:14;;;;;;;3.72;3.35;;;;;;;;;;5096185;28;20059;-78
2021/07/31 08:21:40;;;;;;;6.40;3.95;;;;;;;;;;5081929;28;20039;-78
2021/07/31 08:24:07;;;;;;;3.45;3.13;;;;;;;;;;5108067;28;20024;-79
2021/07/31 08:26:33;;;;;;;2.85;2.55;;;;;;;;;;5087190;28;20029;-77
2021/07/31 08:28:59;;;;;;;2.80;2.50;;;;;;;;;;5076071;28;20039;-78
2021/07/31 08:31:25;;;;;;;3.42;3.03;;;;;;;;;;5075593;28;20462;-78
2021/07/31 08:33:51;;;;;;;3.78;3.13;;;;;;;;;;5082890;28;20405;-79
2021/07/31 08:36:18;;;;;;;4.43;2.75;;;;;;;;;;5076327;28;20033;-79
2021/07/31 08:38:44;;;;;;;3.45;3.15;;;;;;;;;;5074567;28;20334;-77
2021/07/31 08:41:10;;;;;;;3.38;3.08;;;;;;;;;;5074186;28;20073;-78
2021/07/31 08:43:36;;;;;;;5.18;3.45;;;;;;;;;;5078783;28;20042;-77
2021/07/31 08:46:05;;;;;;;5.38;3.20;;;;;;;;;;5085572;28;20353;-77
2021/07/31 08:48:32;;;;;;;8.02;4.05;;;;;;;;;;5077760;28;20116;-78
2021/07/31 08:51:00;;;;;;;3.50;3.20;;;;;;;;;;5075037;28;20019;-78
2021/07/31 08:53:28;;;;;;;5.05;2.80;;;;;;;;;;5085266;28;20036;-79
2021/07/31 08:55:54;;;;;;;3.97;2.97;;;;;;;;;;5074744;28;20032;-78
2021/07/31 08:58:23;;;;;;;3.85;3.10;;;;;;;;;;5083187;28;20029;-79
2021/07/31 09:00:49;;;;;;;3.78;3.22;;;;;;;;;;5078527;28;20051;-77
2021/07/31 09:03:15;;;;;;;3.55;2.95;;;;;;;;;;5079476;28;20031;-78
2021/07/31 09:05:42;;;;;;;2.90;2.63;;;;;;;;;;5094221;28;20099;-79
2021/07/31 09:08:09;;;;;;;3.42;2.75;;;;;;;;;;5093673;28;20100;-78
2021/07/31 09:10:36;;;;;;;3.35;3.08;;;;;;;;;;5081755;28;20031;-78
2021/07/31 09:13:06;;;;;;;3.17;2.85;;;;;;;;;;5091261;28;20080;-77
2021/07/31 09:15:36;;;;;;;2.97;2.42;;;;;;;;;;5091935;28;20024;-77
2021/07/31 09:18:20;;;;;;;2.95;2.60;;;;;;;;;;5092842;28;20462;-78
2021/07/31 09:20:55;;;;;;;2.42;2.22;;;;;;;;;;5093086;28;20036;-78
2021/07/31 09:23:21;;;;;;;2.60;2.40;;;;;;;;;;5091088;28;20070;-79
2021/07/31 09:26:01;;;;;;;2.35;2.15;;;;;;;;;;5095106;28;20028;-81
2021/07/31 09:28:27;;;;;;;3.78;2.50;;;;;;;;;;5114701;28;20015;-78
2021/07/31 09:30:54;;;;;;;4.75;3.50;;;;;;;;;;5085619;28;20044;-79
2021/07/31 09:33:20;;;;;;;2.92;2.50;;;;;;;;;;5077932;28;20077;-80
2021/07/31 09:36:00;;;;;;;5.30;3.22;;;;;;;;;;5079467;28;20099;-79
2021/07/31 09:38:38;;;;;;;3.05;2.85;;;;;;;;;;5075214;28;20031;-80
2021/07/31 09:41:23;;;;;;;3.05;2.75;;;;;;;;;;5074882;28;20025;-79
2021/07/31 09:44:09;;;;;;;2.58;2.38;;;;;;;;;;5075340;28;20024;-79
2021/07/31 09:46:46;;;;;;;4.57;3.05;;;;;;;;;;5075402;28;20040;-80
2021/07/31 09:49:16;;;;;;;5.10;3.10;;;;;;;;;;5074510;28;20493;-80
2021/07/31 09:51:43;;;;;;;5.25;3.00;;;;;;;;;;5077601;28;20084;-80
2021/07/31 09:54:11;;;;;;;4.90;3.10;;;;;;;;;;5077176;28;20028;-80
2021/07/31 09:56:43;;;;;;;4.18;2.95;;;;;;;;;;5075897;28;20028;-78
2021/07/31 09:59:10;;;;;;;4.60;3.40;;;;;;;;;;5080181;28;20040;-80
2021/07/31 10:01:37;;;;;;;3.00;2.80;;;;;;;;;;5082951;28;20043;-82
2021/07/31 10:04:03;;;;;;;4.68;3.03;;;;;;;;;;5086261;28;20377;-81
2021/07/31 10:06:33;;;;;;;4.40;3.15;;;;;;;;;;5076476;28;20024;-81
2021/07/31 10:08:59;;;;;;;4.43;2.80;;;;;;;;;;5075229;28;20472;-80
2021/07/31 10:11:27;;;;;;;3.97;3.58;;;;;;;;;;5073685;28;20032;-80
2021/07/31 10:13:54;;;;;;;4.78;2.92;;;;;;;;;;5089592;28;20446;-80
2021/07/31 10:16:20;;;;;;;4.53;3.55;;;;;;;;;;5097392;28;20110;-81
2021/07/31 10:19:05;;;;;;;4.22;3.13;;;;;;;;;;5094154;28;20028;-81
2021/07/31 10:21:34;;;;;;;5.38;3.25;;;;;;;;;;5078521;28;20037;-80
2021/07/31 10:24:02;;;;;;;4.15;3.78;;;;;;;;;;5076438;28;20060;-81
2021/07/31 10:26:29;;;;;;;4.63;3.42;;;;;;;;;;5079599;28;20035;-80
2021/07/31 10:28:55;;;;;;;5.75;3.30;;;;;;;;;;5096683;28;20032;-81
2021/07/31 10:31:31;;;;;;;3.15;2.85;;;;;;;;;;5103371;28;20540;-80
2021/07/31 10:33:58;;;;;;;3.55;3.25;;;;;;;;;;5088506;28;20083;-80
2021/07/31 10:36:32;;;;;;;3.30;3.00;;;;;;;;;;5087025;28;20028;-80
2021/07/31 10:38:59;;;;;;;4.20;3.10;;;;;;;;;;5084290;28;20036;-80
2021/07/31 10:41:43;;;;;;;6.07;3.22;;;;;;;;;;5085345;28;20123;-82
2021/07/31 10:44:10;;;;;;;5.07;3.15;;;;;;;;;;5094965;28;20051;-80
2021/07/31 10:46:39;;;;;;;4.72;2.97;;;;;;;;;;5076705;28;20096;-79
2021/07/31 10:49:23;;;;;;;3.58;3.10;;;;;;;;;;5077019;28;20017;-80
2021/07/31 10:51:49;;;;;;;6.38;2.78;;;;;;;;;;5075794;28;20032;-81
2021/07/31 10:54:16;;;;;;;5.47;3.03;;;;;;;;;;5077037;28;20082;-80
2021/07/31 10:56:52;;;;;;;4.63;3.00;;;;;;;;;;5082088;28;20385;-80
2021/07/31 10:59:19;;;;;;;3.20;2.90;;;;;;;;;;5074431;28;20033;-80
2021/07/31 11:01:46;;;;;;;3.65;3.35;;;;;;;;;;5095045;28;20074;-81
2021/07/31 11:04:32;;;;;;;3.00;2.80;;;;;;;;;;5088400;28;20034;-80
2021/07/31 11:07:11;;;;;;;4.15;2.85;;;;;;;;;;5077749;28;20058;-81
2021/07/31 11:09:37;;;;;;;5.75;3.17;;;;;;;;;;5075216;28;20052;-80
2021/07/31 11:12:36;;;;;;;2.97;2.75;;;;;;;;;;5093639;28;20436;-79
2021/07/31 11:15:09;;;;;;;4.45;2.92;;;;;;;;;;5050669;28;20105;-81
2021/07/31 11:17:37;;;;;;;6.35;3.60;;;;;;;;;;5094939;28;20044;-79
2021/07/31 11:20:24;;;;;;;4.15;3.25;;;;;;;;;;5095194;28;20051;-82
2021/07/31 11:22:50;;;;;;;3.25;3.05;;;;;;;;;;5099989;28;20046;-79
2021/07/31 11:25:20;;;;;;;3.75;3.13;;;;;;;;;;5105346;28;20028;-79
2021/07/31 11:28:12;;;;;;;3.38;3.15;;;;;;;;;;5099864;28;20028;-81
2021/07/31 11:30:46;;;;;;;3.05;2.75;;;;;;;;;;5095509;28;20119;-81
2021/07/31 11:33:20;;;;;;;4.40;2.53;;;;;;;;;;5094346;28;20126;-81
2021/07/31 11:35:47;;;;;;;2.95;2.72;;;;;;;;;;5089504;28;20035;-80
2021/07/31 11:38:36;;;;;;;3.65;3.15;;;;;;;;;;5092573;28;20055;-78
2021/07/31 11:41:02;;;;;;;3.13;2.65;;;;;;;;;;5102743;28;20028;-81
2021/07/31 11:43:29;;;;;;;3.22;2.90;;;;;;;;;;5097734;28;20083;-81
2021/07/31 11:45:55;;;;;;;3.72;2.75;;;;;;;;;;5101441;28;20021;-80
2021/07/31 11:48:22;;;;;;;3.15;2.88;;;;;;;;;;5098931;28;20036;-81
2021/07/31 11:51:01;;;;;;;2.72;2.53;;;;;;;;;;5102458;28;20403;-79
2021/07/31 11:53:27;;;;;;;3.30;3.00;;;;;;;;;;5102101;28;20036;-80
2021/07/31 11:56:08;;;;;;;2.80;2.33;;;;;;;;;;5102878;28;20020;-81
2021/07/31 11:58:35;;;;;;;3.70;2.88;;;;;;;;;;5100217;28;20039;-80
2021/07/31 12:01:01;;;;;;;2.60;2.40;;;;;;;;;;5097852;28;20086;-80
2021/07/31 12:03:46;;;;;;;2.83;2.55;;;;;;;;;;5095855;28;20060;-80
2021/07/31 12:06:31;;;;;;;3.15;2.75;;;;;;;;;;5083972;28;20075;-79
2021/07/31 12:08:59;;;;;;;2.58;2.38;;;;;;;;;;5079650;28;20031;-80
2021/07/31 12:11:51;;;;;;;3.45;2.67;;;;;;;;;;5078407;28;20428;-80
2021/07/31 12:14:32;;;;;;;2.90;2.70;;;;;;;;;;5081146;28;20115;-80
2021/07/31 12:17:18;;;;;;;3.85;2.70;;;;;;;;;;5080806;28;20273;-81
2021/07/31 12:19:49;;;;;;;3.42;2.50;;;;;;;;;;5080082;28;20477;-78
2021/07/31 12:22:16;;;;;;;2.80;2.15;;;;;;;;;;5083507;28;20039;-77
2021/07/31 12:24:43;;;;;;;5.88;2.70;;;;;;;;;;5079865;28;20222;-81
2021/07/31 12:27:09;;;;;;;4.10;2.58;;;;;;;;;;5079422;28;20020;-79
2021/07/31 12:29:35;;;;;;;3.55;2.83;;;;;;;;;;5077712;28;20182;-80
2021/07/31 12:32:20;;;;;;;3.58;2.80;;;;;;;;;;5081197;28;20036;-79
2021/07/31 12:34:46;;;;;;;2.50;2.30;;;;;;;;;;5091869;28;20136;-78
2021/07/31 12:37:12;;;;;;;3.22;3.00;;;;;;;;;;5113360;28;20012;-77
2021/07/31 12:39:38;;;;;;;3.45;3.00;;;;;;;;;;5108745;28;20035;-80
2021/07/31 12:42:04;;;;;;;2.28;2.08;;;;;;;;;;5091902;28;20081;-80
2021/07/31 12:44:31;;;;;;;2.90;2.70;;;;;;;;;;5098637;28;20035;-80
2021/07/31 12:47:00;;;;;;;3.65;2.70;;;;;;;;;;5082116;28;20024;-80
2021/07/31 12:49:26;;;;;;;2.70;2.28;;;;;;;;;;5077218;28;20389;-82
2021/07/31 12:51:52;;;;;;;3.10;2.80;;;;;;;;;;5077652;28;20097;-80
2021/07/31 12:54:18;;;;;;;2.88;2.08;;;;;;;;;;5078451;28;20051;-80
2021/07/31 12:56:44;;;;;;;3.00;2.70;;;;;;;;;;5076510;28;20115;-81
2021/07/31 12:59:10;;;;;;;2.30;2.20;;;;;;;;;;5081209;28;20483;-78
2021/07/31 13:01:36;;;;;;;2.60;2.40;;;;;;;;;;5079104;28;20058;-80
2021/07/31 13:04:02;;;;;;;4.00;2.47;;;;;;;;;;5086684;28;20070;-81
2021/07/31 13:06:30;;;;;;;3.38;2.58;;;;;;;;;;5080445;28;20103;-82
2021/07/31 13:08:56;;;;;;;2.17;2.08;;;;;;;;;;5078572;28;20044;-80
2021/07/31 13:11:22;;;;;;;2.47;2.28;;;;;;;;;;5078483;28;20105;-80
2021/07/31 13:13:48;;;;;;;2.53;2.33;;;;;;;;;;5085797;28;20032;-81
2021/07/31 13:16:14;;;;;;;2.22;2.13;;;;;;;;;;5096579;28;20108;-80
2021/07/31 13:18:40;;;;;;;2.30;2.08;;;;;;;;;;5085276;28;20032;-81
2021/07/31 13:21:07;;;;;;;2.55;2.33;;;;;;;;;;5074858;28;20044;-81
2021/07/31 13:23:35;;;;;;;2.70;2.50;;;;;;;;;;5079027;28;20116;-82
2021/07/31 13:26:01;;;;;;;3.15;2.88;;;;;;;;;;5075892;28;20020;-81
2021/07/31 13:28:27;;;;;;;2.80;2.60;;;;;;;;;;5076002;28;20063;-80
2021/07/31 13:30:54;;;;;;;2.85;2.65;;;;;;;;;;5085409;28;20081;-80
2021/07/31 13:33:20;;;;;;;3.03;2.83;;;;;;;;;;5087438;28;20035;-79
2021/07/31 13:35:46;;;;;;;4.05;2.63;;;;;;;;;;5081270;28;20038;-79
2021/07/31 13:38:17;;;;;;;2.75;2.55;;;;;;;;;;5083487;28;20032;-80
2021/07/31 13:40:54;;;;;;;3.15;2.85;;;;;;;;;;5085413;28;20042;-81
2021/07/31 13:43:20;;;;;;;4.22;3.08;;;;;;;;;;5084495;28;20024;-80
2021/07/31 13:45:47;;;;;;;2.92;2.63;;;;;;;;;;5087057;28;20095;-81
2021/07/31 13:48:13;;;;;;;7.85;3.58;;;;;;;;;;5087268;28;20029;-81
2021/07/31 13:50:39;;;;;;;4.70;2.50;;;;;;;;;;5087377;28;20027;-81
2021/07/31 13:53:05;;;;;;;4.57;2.95;;;;;;;;;;5083520;28;20035;-80
2021/07/31 13:55:31;;;;;;;4.38;2.75;;;;;;;;;;5081148;28;20056;-79
2021/07/31 13:57:57;;;;;;;2.70;2.50;;;;;;;;;;5088383;28;20052;-79
2021/07/31 14:00:23;;;;;;;3.28;2.55;;;;;;;;;;5074607;28;20035;-80
2021/07/31 14:02:49;;;;;;;2.65;2.42;;;;;;;;;;5088443;28;20016;-81
2021/07/31 14:05:16;;;;;;;3.42;2.72;;;;;;;;;;5087184;28;20141;-81
2021/07/31 14:07:42;;;;;;;2.70;2.50;;;;;;;;;;5092803;28;20046;-81
2021/07/31 14:10:12;;;;;;;2.72;2.53;;;;;;;;;;5097618;28;20092;-81
2021/07/31 14:12:38;;;;;;;2.75;2.55;;;;;;;;;;5096576;28;20031;-80
2021/07/31 14:15:04;;;;;;;3.00;2.67;;;;;;;;;;5096421;28;20073;-82
2021/07/31 14:17:30;;;;;;;1.88;1.77;;;;;;;;;;5095730;28;20043;-81
2021/07/31 14:19:56;;;;;;;2.45;1.92;;;;;;;;;;5096585;28;20131;-81
2021/07/31 14:22:22;;;;;;;4.53;2.58;;;;;;;;;;5096143;28;20032;-81
2021/07/31 14:24:48;;;;;;;2.88;2.67;;;;;;;;;;5096245;28;20028;-82
2021/07/31 14:27:14;;;;;;;3.33;2.38;;;;;;;;;;5106457;28;20070;-79
2021/07/31 14:29:41;;;;;;;3.10;2.65;;;;;;;;;;5079305;28;20025;-81
2021/07/31 14:32:08;;;;;;;2.35;2.15;;;;;;;;;;5077787;28;20055;-81
2021/07/31 14:34:34;;;;;;;2.47;2.28;;;;;;;;;;5098428;28;20031;-80
2021/07/31 14:37:01;;;;;;;3.03;2.65;;;;;;;;;;5096122;28;20467;-80
2021/07/31 14:39:27;;;;;;;3.22;2.92;;;;;;;;;;5094944;28;20170;-81
2021/07/31 14:41:55;;;;;;;3.88;3.00;;;;;;;;;;5095141;28;20076;-80
2021/07/31 14:44:21;;;;;;;3.90;2.50;;;;;;;;;;5097863;28;20044;-78
2021/07/31 14:46:48;;;;;;;3.38;3.15;;;;;;;;;;5096174;28;20029;-80